sensor_id;sensor_type;location;lat;lon;timestamp;noise_LAeq;noise_LA_min;noise_LA_max;noise_LA01;noise_LA95
64393;Laerm;50712;49.506;10.400;2023-08-07T00:00:28;49.08;47.05;52.04;;
64393;Laerm;50712;49.506;10.400;2023-08-07T00:00:59;49.78;47.68;53.44;;
64393;Laerm;50712;49.506;10.400;2023-08-07T00:01:29;49.98;47.82;54.24;;
64393;Laerm;50712;49.506;10.400;2023-08-07T00:01:59;50.35;47.81;54.23;;
64393;Laerm;50712;49.506;10.400;2023-08-07T00:02:30;50.33;47.90;54.14;;
64393;Laerm;50712;49.506;10.400;2023-08-07T00:03:00;49.72;47.31;53.16;;
64393;Laerm;50712;49.506;10.400;2023-08-07T00:03:30;48.88;46.72;54.30;;
64393;Laerm;50712;49.506;10.400;2023-08-07T00:04:04;49.20;47.20;53.15;;
64393;Laerm;50712;49.506;10.400;2023-08-07T00:04:34;49.41;46.85;53.60;;
64393;Laerm;50712;49.506;10.400;2023-08-07T00:05:08;49.36;46.84;52.90;;
64393;Laerm;50712;49.506;10.400;2023-08-07T00:05:45;49.70;46.92;53.51;;
64393;Laerm;50712;49.506;10.400;2023-08-07T00:06:19;49.15;46.92;53.20;;
64393;Laerm;50712;49.506;10.400;2023-08-07T00:06:50;49.03;46.92;53.67;;
64393;Laerm;50712;49.506;10.400;2023-08-07T00:07:20;49.35;47.02;53.49;;
64393;Laerm;50712;49.506;10.400;2023-08-07T00:07:51;49.21;47.03;53.82;;
64393;Laerm;50712;49.506;10.400;2023-08-07T00:08:21;48.57;46.56;52.42;;
64393;Laerm;50712;49.506;10.400;2023-08-07T00:08:52;48.69;46.61;52.49;;
64393;Laerm;50712;49.506;10.400;2023-08-07T00:09:22;48.12;46.52;52.39;;
64393;Laerm;50712;49.506;10.400;2023-08-07T00:09:53;48.22;46.65;51.64;;
64393;Laerm;50712;49.506;10.400;2023-08-07T00:10:23;48.64;46.55;52.34;;
64393;Laerm;50712;49.506;10.400;2023-08-07T00:11:09;49.19;46.46;54.13;;
64393;Laerm;50712;49.506;10.400;2023-08-07T00:11:40;48.64;46.83;51.99;;
64393;Laerm;50712;49.506;10.400;2023-08-07T00:12:10;48.59;46.99;52.02;;
64393;Laerm;50712;49.506;10.400;2023-08-07T00:12:47;48.44;46.92;52.63;;
64393;Laerm;50712;49.506;10.400;2023-08-07T00:13:20;48.53;46.85;54.72;;
64393;Laerm;50712;49.506;10.400;2023-08-07T00:13:50;48.72;46.96;52.56;;
64393;Laerm;50712;49.506;10.400;2023-08-07T00:14:21;49.22;46.94;53.75;;
64393;Laerm;50712;49.506;10.400;2023-08-07T00:14:51;51.52;47.20;54.61;;
64393;Laerm;50712;49.506;10.400;2023-08-07T00:15:21;49.80;47.10;53.29;;
64393;Laerm;50712;49.506;10.400;2023-08-07T00:15:52;48.27;46.75;53.19;;
64393;Laerm;50712;49.506;10.400;2023-08-07T00:16:22;48.15;46.78;51.57;;
64393;Laerm;50712;49.506;10.400;2023-08-07T00:17:23;47.69;46.50;50.30;;
64393;Laerm;50712;49.506;10.400;2023-08-07T00:17:53;49.19;46.35;55.63;;
64393;Laerm;50712;49.506;10.400;2023-08-07T00:18:23;47.99;46.56;53.09;;
64393;Laerm;50712;49.506;10.400;2023-08-07T00:18:54;48.69;46.59;51.92;;
64393;Laerm;50712;49.506;10.400;2023-08-07T00:19:26;49.41;46.81;56.55;;
64393;Laerm;50712;49.506;10.400;2023-08-07T00:19:59;48.51;46.47;53.37;;
64393;Laerm;50712;49.506;10.400;2023-08-07T00:20:29;47.96;46.64;50.93;;
64393;Laerm;50712;49.506;10.400;2023-08-07T00:21:36;49.55;47.11;53.27;;
64393;Laerm;50712;49.506;10.400;2023-08-07T00:22:08;48.95;47.27;50.88;;
64393;Laerm;50712;49.506;10.400;2023-08-07T00:22:45;48.28;46.69;51.07;;
64393;Laerm;50712;49.506;10.400;2023-08-07T00:23:16;48.42;47.19;51.59;;
64393;Laerm;50712;49.506;10.400;2023-08-07T00:23:46;48.23;46.62;51.10;;
64393;Laerm;50712;49.506;10.400;2023-08-07T00:24:16;48.41;47.04;51.58;;
64393;Laerm;50712;49.506;10.400;2023-08-07T00:25:20;48.55;46.79;53.32;;
64393;Laerm;50712;49.506;10.400;2023-08-07T00:25:50;48.42;46.67;51.35;;
64393;Laerm;50712;49.506;10.400;2023-08-07T00:26:20;47.99;46.54;51.26;;
64393;Laerm;50712;49.506;10.400;2023-08-07T00:26:51;48.12;46.68;50.91;;
64393;Laerm;50712;49.506;10.400;2023-08-07T00:27:22;48.44;46.65;53.94;;
64393;Laerm;50712;49.506;10.400;2023-08-07T00:27:52;48.44;46.65;53.94;;
64393;Laerm;50712;49.506;10.400;2023-08-07T00:28:23;49.34;46.71;53.11;;
64393;Laerm;50712;49.506;10.400;2023-08-07T00:28:56;49.42;46.50;55.35;;
64393;Laerm;50712;49.506;10.400;2023-08-07T00:29:27;49.50;46.64;55.09;;
64393;Laerm;50712;49.506;10.400;2023-08-07T00:29:57;50.59;46.97;55.89;;
64393;Laerm;50712;49.506;10.400;2023-08-07T00:30:27;51.31;48.77;54.40;;
64393;Laerm;50712;49.506;10.400;2023-08-07T00:31:31;54.00;47.64;60.25;;
64393;Laerm;50712;49.506;10.400;2023-08-07T00:32:03;49.75;47.64;52.65;;
64393;Laerm;50712;49.506;10.400;2023-08-07T00:32:33;51.35;47.75;54.75;;
64393;Laerm;50712;49.506;10.400;2023-08-07T00:33:03;49.02;47.23;52.26;;
64393;Laerm;50712;49.506;10.400;2023-08-07T00:33:34;49.80;47.65;55.55;;
64393;Laerm;50712;49.506;10.400;2023-08-07T00:34:04;50.56;47.60;54.32;;
64393;Laerm;50712;49.506;10.400;2023-08-07T00:34:35;50.21;47.78;53.28;;
64393;Laerm;50712;49.506;10.400;2023-08-07T00:35:05;49.24;47.16;53.58;;
64393;Laerm;50712;49.506;10.400;2023-08-07T00:35:36;49.23;47.13;52.78;;
64393;Laerm;50712;49.506;10.400;2023-08-07T00:36:07;50.07;47.45;53.95;;
64393;Laerm;50712;49.506;10.400;2023-08-07T00:36:37;50.80;47.70;55.33;;
64393;Laerm;50712;49.506;10.400;2023-08-07T00:37:08;50.54;47.75;53.80;;
64393;Laerm;50712;49.506;10.400;2023-08-07T00:37:38;50.11;47.28;54.00;;
64393;Laerm;50712;49.506;10.400;2023-08-07T00:38:09;50.03;46.80;54.15;;
64393;Laerm;50712;49.506;10.400;2023-08-07T00:38:39;49.67;46.87;54.31;;
64393;Laerm;50712;49.506;10.400;2023-08-07T00:39:09;48.99;46.54;52.27;;
64393;Laerm;50712;49.506;10.400;2023-08-07T00:39:43;50.00;47.14;55.48;;
64393;Laerm;50712;49.506;10.400;2023-08-07T00:40:14;50.45;47.13;54.37;;
64393;Laerm;50712;49.506;10.400;2023-08-07T00:40:44;50.15;47.05;54.85;;
64393;Laerm;50712;49.506;10.400;2023-08-07T00:41:17;50.11;47.07;54.93;;
64393;Laerm;50712;49.506;10.400;2023-08-07T00:41:48;50.01;46.82;54.29;;
64393;Laerm;50712;49.506;10.400;2023-08-07T00:42:18;49.98;47.77;55.26;;
64393;Laerm;50712;49.506;10.400;2023-08-07T00:42:49;49.18;46.96;55.63;;
64393;Laerm;50712;49.506;10.400;2023-08-07T00:43:19;49.27;46.71;53.90;;
64393;Laerm;50712;49.506;10.400;2023-08-07T00:43:51;48.95;46.40;56.41;;
64393;Laerm;50712;49.506;10.400;2023-08-07T00:44:21;48.86;46.64;52.86;;
64393;Laerm;50712;49.506;10.400;2023-08-07T00:44:53;48.63;46.58;52.31;;
64393;Laerm;50712;49.506;10.400;2023-08-07T00:45:24;48.20;46.43;51.11;;
64393;Laerm;50712;49.506;10.400;2023-08-07T00:45:54;48.95;46.83;53.91;;
64393;Laerm;50712;49.506;10.400;2023-08-07T00:46:55;51.60;47.33;58.23;;
64393;Laerm;50712;49.506;10.400;2023-08-07T00:47:26;49.74;46.89;53.06;;
64393;Laerm;50712;49.506;10.400;2023-08-07T00:47:56;50.40;47.02;55.18;;
64393;Laerm;50712;49.506;10.400;2023-08-07T00:48:27;51.82;49.32;55.34;;
64393;Laerm;50712;49.506;10.400;2023-08-07T00:48:58;50.73;48.18;55.14;;
64393;Laerm;50712;49.506;10.400;2023-08-07T00:49:28;50.60;48.68;53.62;;
64393;Laerm;50712;49.506;10.400;2023-08-07T00:49:59;52.50;48.75;60.58;;
64393;Laerm;50712;49.506;10.400;2023-08-07T00:50:30;54.95;51.76;63.90;;
64393;Laerm;50712;49.506;10.400;2023-08-07T00:51:01;55.30;52.02;62.21;;
64393;Laerm;50712;49.506;10.400;2023-08-07T00:51:32;55.55;50.41;62.49;;
64393;Laerm;50712;49.506;10.400;2023-08-07T00:52:03;55.44;50.77;60.26;;
64393;Laerm;50712;49.506;10.400;2023-08-07T00:52:34;54.24;48.60;59.95;;
64393;Laerm;50712;49.506;10.400;2023-08-07T00:53:05;54.59;48.36;64.02;;
64393;Laerm;50712;49.506;10.400;2023-08-07T00:53:37;51.67;48.51;55.96;;
64393;Laerm;50712;49.506;10.400;2023-08-07T00:54:10;52.18;49.16;54.90;;
64393;Laerm;50712;49.506;10.400;2023-08-07T00:54:41;51.23;48.32;57.76;;
64393;Laerm;50712;49.506;10.400;2023-08-07T00:55:12;51.41;48.98;53.98;;
64393;Laerm;50712;49.506;10.400;2023-08-07T00:55:42;51.30;48.71;54.66;;
64393;Laerm;50712;49.506;10.400;2023-08-07T00:56:13;51.39;48.00;55.84;;
64393;Laerm;50712;49.506;10.400;2023-08-07T00:56:44;51.04;48.03;54.94;;
64393;Laerm;50712;49.506;10.400;2023-08-07T00:57:15;51.04;48.36;54.09;;
64393;Laerm;50712;49.506;10.400;2023-08-07T00:57:46;51.47;48.33;55.01;;
64393;Laerm;50712;49.506;10.400;2023-08-07T00:58:17;51.21;48.53;55.15;;
64393;Laerm;50712;49.506;10.400;2023-08-07T00:58:48;51.94;48.96;55.81;;
64393;Laerm;50712;49.506;10.400;2023-08-07T00:59:20;52.83;49.97;56.26;;
64393;Laerm;50712;49.506;10.400;2023-08-07T00:59:52;52.73;49.81;56.15;;
64393;Laerm;50712;49.506;10.400;2023-08-07T01:00:22;52.35;48.63;56.20;;
64393;Laerm;50712;49.506;10.400;2023-08-07T01:00:53;51.28;48.35;55.20;;
64393;Laerm;50712;49.506;10.400;2023-08-07T01:01:23;50.46;48.08;54.00;;
64393;Laerm;50712;49.506;10.400;2023-08-07T01:01:54;51.60;48.76;56.80;;
64393;Laerm;50712;49.506;10.400;2023-08-07T01:02:24;54.93;48.12;67.57;;
64393;Laerm;50712;49.506;10.400;2023-08-07T01:02:56;59.19;47.89;68.24;;
64393;Laerm;50712;49.506;10.400;2023-08-07T01:03:26;50.16;47.20;55.18;;
64393;Laerm;50712;49.506;10.400;2023-08-07T01:03:57;50.02;47.10;55.45;;
64393;Laerm;50712;49.506;10.400;2023-08-07T01:04:27;54.65;47.62;61.09;;
64393;Laerm;50712;49.506;10.400;2023-08-07T01:04:59;52.48;47.20;61.09;;
64393;Laerm;50712;49.506;10.400;2023-08-07T01:05:29;51.08;47.32;55.85;;
64393;Laerm;50712;49.506;10.400;2023-08-07T01:06:01;50.38;46.96;54.37;;
64393;Laerm;50712;49.506;10.400;2023-08-07T01:06:32;49.83;46.67;54.36;;
64393;Laerm;50712;49.506;10.400;2023-08-07T01:07:02;49.96;47.14;54.21;;
64393;Laerm;50712;49.506;10.400;2023-08-07T01:07:32;50.50;47.44;54.21;;
64393;Laerm;50712;49.506;10.400;2023-08-07T01:08:03;51.61;48.39;55.24;;
64393;Laerm;50712;49.506;10.400;2023-08-07T01:08:34;52.36;48.34;59.13;;
64393;Laerm;50712;49.506;10.400;2023-08-07T01:09:04;52.23;47.83;56.08;;
64393;Laerm;50712;49.506;10.400;2023-08-07T01:09:35;51.69;47.96;56.53;;
64393;Laerm;50712;49.506;10.400;2023-08-07T01:10:05;51.68;47.68;55.42;;
64393;Laerm;50712;49.506;10.400;2023-08-07T01:11:50;52.81;49.35;59.05;;
64393;Laerm;50712;49.506;10.400;2023-08-07T01:12:30;50.21;46.76;54.04;;
64393;Laerm;50712;49.506;10.400;2023-08-07T01:13:08;51.32;47.20;54.24;;
64393;Laerm;50712;49.506;10.400;2023-08-07T01:14:00;52.18;48.34;55.66;;
64393;Laerm;50712;49.506;10.400;2023-08-07T01:14:38;53.45;47.18;56.95;;
64393;Laerm;50712;49.506;10.400;2023-08-07T01:15:14;54.02;48.67;57.42;;
64393;Laerm;50712;49.506;10.400;2023-08-07T01:15:46;51.53;47.80;56.51;;
64393;Laerm;50712;49.506;10.400;2023-08-07T01:16:29;50.74;48.11;54.50;;
64393;Laerm;50712;49.506;10.400;2023-08-07T01:17:13;50.80;48.03;54.29;;
64393;Laerm;50712;49.506;10.400;2023-08-07T01:17:46;50.65;47.93;54.86;;
64393;Laerm;50712;49.506;10.400;2023-08-07T01:18:17;50.47;47.85;54.79;;
64393;Laerm;50712;49.506;10.400;2023-08-07T01:18:48;51.16;48.47;55.35;;
64393;Laerm;50712;49.506;10.400;2023-08-07T01:19:24;52.25;48.35;55.92;;
64393;Laerm;50712;49.506;10.400;2023-08-07T01:19:55;51.35;48.23;55.18;;
64393;Laerm;50712;49.506;10.400;2023-08-07T01:20:26;51.11;48.01;54.76;;
64393;Laerm;50712;49.506;10.400;2023-08-07T01:20:57;55.02;48.12;63.73;;
64393;Laerm;50712;49.506;10.400;2023-08-07T01:21:27;50.39;47.56;53.86;;
64393;Laerm;50712;49.506;10.400;2023-08-07T01:22:08;50.17;47.62;54.09;;
64393;Laerm;50712;49.506;10.400;2023-08-07T01:22:39;49.91;47.75;52.32;;
64393;Laerm;50712;49.506;10.400;2023-08-07T01:23:09;50.79;47.21;54.14;;
64393;Laerm;50712;49.506;10.400;2023-08-07T01:23:40;50.88;48.35;53.95;;
64393;Laerm;50712;49.506;10.400;2023-08-07T01:24:10;50.50;48.00;53.34;;
64393;Laerm;50712;49.506;10.400;2023-08-07T01:24:46;49.53;47.37;52.54;;
64393;Laerm;50712;49.506;10.400;2023-08-07T01:25:17;51.35;48.92;56.35;;
64393;Laerm;50712;49.506;10.400;2023-08-07T01:25:47;50.20;48.09;54.32;;
64393;Laerm;50712;49.506;10.400;2023-08-07T01:26:19;50.55;47.87;54.33;;
64393;Laerm;50712;49.506;10.400;2023-08-07T01:26:50;51.03;47.73;58.76;;
64393;Laerm;50712;49.506;10.400;2023-08-07T01:27:34;53.87;47.44;58.48;;
64393;Laerm;50712;49.506;10.400;2023-08-07T01:28:19;55.60;48.90;58.12;;
64393;Laerm;50712;49.506;10.400;2023-08-07T01:29:12;53.82;48.17;57.46;;
64393;Laerm;50712;49.506;10.400;2023-08-07T01:30:42;49.52;47.47;53.57;;
64393;Laerm;50712;49.506;10.400;2023-08-07T01:31:19;50.18;47.65;54.42;;
64393;Laerm;50712;49.506;10.400;2023-08-07T01:31:53;49.29;47.19;54.74;;
64393;Laerm;50712;49.506;10.400;2023-08-07T01:34:15;49.73;47.56;55.49;;
64393;Laerm;50712;49.506;10.400;2023-08-07T01:34:48;50.91;48.19;57.01;;
64393;Laerm;50712;49.506;10.400;2023-08-07T01:35:22;49.47;47.75;51.20;;
64393;Laerm;50712;49.506;10.400;2023-08-07T01:35:57;50.12;48.30;53.82;;
64393;Laerm;50712;49.506;10.400;2023-08-07T01:36:29;49.94;48.64;52.92;;
64393;Laerm;50712;49.506;10.400;2023-08-07T01:37:01;49.62;47.83;51.41;;
64393;Laerm;50712;49.506;10.400;2023-08-07T01:37:35;49.45;47.72;51.45;;
64393;Laerm;50712;49.506;10.400;2023-08-07T01:38:07;49.98;48.45;51.61;;
64393;Laerm;50712;49.506;10.400;2023-08-07T01:38:38;50.23;48.66;52.02;;
64393;Laerm;50712;49.506;10.400;2023-08-07T01:39:10;49.81;48.39;52.00;;
64393;Laerm;50712;49.506;10.400;2023-08-07T01:39:41;51.90;48.75;66.23;;
64393;Laerm;50712;49.506;10.400;2023-08-07T01:40:13;52.18;49.78;63.16;;
64393;Laerm;50712;49.506;10.400;2023-08-07T01:40:44;51.92;49.35;61.39;;
64393;Laerm;50712;49.506;10.400;2023-08-07T01:41:15;51.14;48.66;60.56;;
64393;Laerm;50712;49.506;10.400;2023-08-07T01:41:46;50.00;47.89;52.22;;
64393;Laerm;50712;49.506;10.400;2023-08-07T01:42:18;51.52;47.98;55.43;;
64393;Laerm;50712;49.506;10.400;2023-08-07T01:43:19;53.51;51.37;57.49;;
64393;Laerm;50712;49.506;10.400;2023-08-07T01:43:50;54.75;51.06;58.43;;
64393;Laerm;50712;49.506;10.400;2023-08-07T01:44:51;53.46;49.76;57.46;;
64393;Laerm;50712;49.506;10.400;2023-08-07T01:45:25;53.01;49.98;57.46;;
64393;Laerm;50712;49.506;10.400;2023-08-07T01:45:56;55.10;49.95;62.81;;
64393;Laerm;50712;49.506;10.400;2023-08-07T01:46:26;54.08;49.70;58.87;;
64393;Laerm;50712;49.506;10.400;2023-08-07T01:46:57;54.68;49.99;59.55;;
64393;Laerm;50712;49.506;10.400;2023-08-07T01:47:28;56.81;51.92;61.71;;
64393;Laerm;50712;49.506;10.400;2023-08-07T01:48:29;52.51;48.65;56.61;;
64393;Laerm;50712;49.506;10.400;2023-08-07T01:48:59;52.86;48.26;61.20;;
64393;Laerm;50712;49.506;10.400;2023-08-07T01:49:29;56.85;48.77;61.72;;
64393;Laerm;50712;49.506;10.400;2023-08-07T01:50:00;57.16;49.09;64.19;;
64393;Laerm;50712;49.506;10.400;2023-08-07T01:50:31;58.50;50.16;63.06;;
64393;Laerm;50712;49.506;10.400;2023-08-07T01:51:02;57.92;49.37;63.62;;
64393;Laerm;50712;49.506;10.400;2023-08-07T01:51:33;56.13;49.02;63.44;;
64393;Laerm;50712;49.506;10.400;2023-08-07T01:52:04;58.01;48.48;67.77;;
64393;Laerm;50712;49.506;10.400;2023-08-07T01:52:34;57.56;49.06;66.13;;
64393;Laerm;50712;49.506;10.400;2023-08-07T01:53:06;53.06;49.54;57.16;;
64393;Laerm;50712;49.506;10.400;2023-08-07T01:53:36;51.19;48.07;56.41;;
64393;Laerm;50712;49.506;10.400;2023-08-07T01:54:06;52.15;48.72;55.71;;
64393;Laerm;50712;49.506;10.400;2023-08-07T01:54:37;55.21;48.39;63.77;;
64393;Laerm;50712;49.506;10.400;2023-08-07T01:55:07;54.85;48.20;62.17;;
64393;Laerm;50712;49.506;10.400;2023-08-07T01:55:38;53.97;49.34;59.30;;
64393;Laerm;50712;49.506;10.400;2023-08-07T01:56:08;51.31;47.85;55.51;;
64393;Laerm;50712;49.506;10.400;2023-08-07T01:56:38;52.31;48.29;61.09;;
64393;Laerm;50712;49.506;10.400;2023-08-07T01:57:09;51.43;48.16;57.23;;
64393;Laerm;50712;49.506;10.400;2023-08-07T01:57:39;62.89;49.09;67.15;;
64393;Laerm;50712;49.506;10.400;2023-08-07T01:58:10;62.26;53.65;65.76;;
64393;Laerm;50712;49.506;10.400;2023-08-07T01:58:40;63.10;51.08;66.90;;
64393;Laerm;50712;49.506;10.400;2023-08-07T01:59:11;61.47;47.76;65.36;;
64393;Laerm;50712;49.506;10.400;2023-08-07T02:00:12;57.65;47.14;64.24;;
64393;Laerm;50712;49.506;10.400;2023-08-07T02:00:46;56.38;47.28;64.65;;
64393;Laerm;50712;49.506;10.400;2023-08-07T02:01:16;49.51;46.96;54.58;;
64393;Laerm;50712;49.506;10.400;2023-08-07T02:01:46;50.96;46.68;66.91;;
64393;Laerm;50712;49.506;10.400;2023-08-07T02:02:17;48.12;46.57;53.43;;
64393;Laerm;50712;49.506;10.400;2023-08-07T02:02:47;49.73;46.40;53.51;;
64393;Laerm;50712;49.506;10.400;2023-08-07T02:03:18;52.34;46.64;66.28;;
64393;Laerm;50712;49.506;10.400;2023-08-07T02:03:49;48.53;46.81;52.99;;
64393;Laerm;50712;49.506;10.400;2023-08-07T02:04:19;59.35;47.15;66.18;;
64393;Laerm;50712;49.506;10.400;2023-08-07T02:04:50;60.41;49.40;64.45;;
64393;Laerm;50712;49.506;10.400;2023-08-07T02:05:21;58.84;49.34;64.31;;
64393;Laerm;50712;49.506;10.400;2023-08-07T02:05:51;59.98;48.37;64.09;;
64393;Laerm;50712;49.506;10.400;2023-08-07T02:06:21;59.72;48.42;64.39;;
64393;Laerm;50712;49.506;10.400;2023-08-07T02:06:52;59.70;48.61;63.12;;
64393;Laerm;50712;49.506;10.400;2023-08-07T02:07:24;60.55;48.90;64.88;;
64393;Laerm;50712;49.506;10.400;2023-08-07T02:07:55;59.77;49.95;64.73;;
64393;Laerm;50712;49.506;10.400;2023-08-07T02:08:26;59.74;50.69;64.63;;
64393;Laerm;50712;49.506;10.400;2023-08-07T02:08:57;61.41;50.07;65.62;;
64393;Laerm;50712;49.506;10.400;2023-08-07T02:09:28;63.43;58.27;66.53;;
64393;Laerm;50712;49.506;10.400;2023-08-07T02:09:58;65.85;62.00;67.76;;
64393;Laerm;50712;49.506;10.400;2023-08-07T02:10:30;66.32;61.95;69.18;;
64393;Laerm;50712;49.506;10.400;2023-08-07T02:11:01;66.38;63.48;68.45;;
64393;Laerm;50712;49.506;10.400;2023-08-07T02:11:32;66.35;56.63;68.31;;
64393;Laerm;50712;49.506;10.400;2023-08-07T02:12:03;66.02;51.09;68.32;;
64393;Laerm;50712;49.506;10.400;2023-08-07T02:12:34;64.61;50.63;66.72;;
64393;Laerm;50712;49.506;10.400;2023-08-07T02:13:04;64.73;59.40;67.50;;
64393;Laerm;50712;49.506;10.400;2023-08-07T02:13:36;60.67;49.81;67.26;;
64393;Laerm;50712;49.506;10.400;2023-08-07T02:14:06;52.87;49.61;59.56;;
64393;Laerm;50712;49.506;10.400;2023-08-07T02:14:37;52.14;49.36;59.65;;
64393;Laerm;50712;49.506;10.400;2023-08-07T02:15:38;59.55;49.73;71.23;;
64393;Laerm;50712;49.506;10.400;2023-08-07T02:16:08;52.89;48.57;72.46;;
64393;Laerm;50712;49.506;10.400;2023-08-07T02:16:38;52.67;50.29;56.62;;
64393;Laerm;50712;49.506;10.400;2023-08-07T02:17:09;54.85;50.22;58.23;;
64393;Laerm;50712;49.506;10.400;2023-08-07T02:17:39;53.41;47.63;58.81;;
64393;Laerm;50712;49.506;10.400;2023-08-07T02:18:11;53.70;47.38;58.75;;
64393;Laerm;50712;49.506;10.400;2023-08-07T02:18:41;53.12;47.93;57.95;;
64393;Laerm;50712;49.506;10.400;2023-08-07T02:19:12;53.22;48.10;57.68;;
64393;Laerm;50712;49.506;10.400;2023-08-07T02:19:42;52.62;47.16;58.95;;
64393;Laerm;50712;49.506;10.400;2023-08-07T02:20:13;51.81;47.78;56.06;;
64393;Laerm;50712;49.506;10.400;2023-08-07T02:20:43;51.64;46.92;56.99;;
64393;Laerm;50712;49.506;10.400;2023-08-07T02:21:14;51.33;47.55;56.37;;
64393;Laerm;50712;49.506;10.400;2023-08-07T02:21:44;50.41;48.00;55.29;;
64393;Laerm;50712;49.506;10.400;2023-08-07T02:22:14;50.36;46.91;54.47;;
64393;Laerm;50712;49.506;10.400;2023-08-07T02:22:46;49.68;46.98;54.50;;
64393;Laerm;50712;49.506;10.400;2023-08-07T02:23:16;49.29;47.24;54.86;;
64393;Laerm;50712;49.506;10.400;2023-08-07T02:23:46;50.36;47.33;56.38;;
64393;Laerm;50712;49.506;10.400;2023-08-07T02:24:17;50.99;47.44;56.72;;
64393;Laerm;50712;49.506;10.400;2023-08-07T02:24:49;51.61;47.53;56.19;;
64393;Laerm;50712;49.506;10.400;2023-08-07T02:25:19;52.11;46.92;56.12;;
64393;Laerm;50712;49.506;10.400;2023-08-07T02:25:51;54.64;49.55;57.76;;
64393;Laerm;50712;49.506;10.400;2023-08-07T02:26:21;53.69;49.50;58.04;;
64393;Laerm;50712;49.506;10.400;2023-08-07T02:26:51;53.07;47.23;57.10;;
64393;Laerm;50712;49.506;10.400;2023-08-07T02:27:23;53.06;49.03;59.50;;
64393;Laerm;50712;49.506;10.400;2023-08-07T02:27:53;51.41;47.77;56.68;;
64393;Laerm;50712;49.506;10.400;2023-08-07T02:28:23;51.09;47.34;55.61;;
64393;Laerm;50712;49.506;10.400;2023-08-07T02:28:54;50.62;46.79;55.98;;
64393;Laerm;50712;49.506;10.400;2023-08-07T02:29:24;50.20;47.29;55.70;;
64393;Laerm;50712;49.506;10.400;2023-08-07T02:29:54;50.89;47.79;55.69;;
64393;Laerm;50712;49.506;10.400;2023-08-07T02:30:26;50.43;47.58;55.50;;
64393;Laerm;50712;49.506;10.400;2023-08-07T02:30:57;51.45;47.63;56.48;;
64393;Laerm;50712;49.506;10.400;2023-08-07T02:31:27;50.36;47.40;55.99;;
64393;Laerm;50712;49.506;10.400;2023-08-07T02:31:58;50.29;48.32;55.81;;
64393;Laerm;50712;49.506;10.400;2023-08-07T02:32:29;50.50;48.13;53.95;;
64393;Laerm;50712;49.506;10.400;2023-08-07T02:32:59;51.62;48.06;55.85;;
64393;Laerm;50712;49.506;10.400;2023-08-07T02:33:30;52.43;48.88;57.09;;
64393;Laerm;50712;49.506;10.400;2023-08-07T02:34:00;51.17;48.36;55.62;;
64393;Laerm;50712;49.506;10.400;2023-08-07T02:34:31;50.22;48.08;54.42;;
64393;Laerm;50712;49.506;10.400;2023-08-07T02:35:02;50.87;48.45;54.98;;
64393;Laerm;50712;49.506;10.400;2023-08-07T02:35:32;51.60;48.53;54.66;;
64393;Laerm;50712;49.506;10.400;2023-08-07T02:36:03;56.40;48.58;60.57;;
64393;Laerm;50712;49.506;10.400;2023-08-07T02:36:33;59.45;48.22;62.24;;
64393;Laerm;50712;49.506;10.400;2023-08-07T02:37:04;56.90;47.85;64.40;;
64393;Laerm;50712;49.506;10.400;2023-08-07T02:37:35;49.71;48.14;55.92;;
64393;Laerm;50712;49.506;10.400;2023-08-07T02:38:05;49.50;47.56;55.68;;
64393;Laerm;50712;49.506;10.400;2023-08-07T02:38:35;50.50;48.01;55.34;;
64393;Laerm;50712;49.506;10.400;2023-08-07T02:39:06;50.63;48.15;56.05;;
64393;Laerm;50712;49.506;10.400;2023-08-07T02:39:36;49.54;47.29;56.05;;
64393;Laerm;50712;49.506;10.400;2023-08-07T02:40:07;50.54;47.38;55.43;;
64393;Laerm;50712;49.506;10.400;2023-08-07T02:41:09;49.62;47.49;54.22;;
64393;Laerm;50712;49.506;10.400;2023-08-07T02:41:39;50.09;47.34;54.64;;
64393;Laerm;50712;49.506;10.400;2023-08-07T02:42:09;49.89;47.18;53.86;;
64393;Laerm;50712;49.506;10.400;2023-08-07T02:42:40;49.66;47.04;54.50;;
64393;Laerm;50712;49.506;10.400;2023-08-07T02:43:10;49.42;47.26;55.49;;
64393;Laerm;50712;49.506;10.400;2023-08-07T02:43:41;50.75;47.80;61.05;;
64393;Laerm;50712;49.506;10.400;2023-08-07T02:44:12;51.04;47.48;60.48;;
64393;Laerm;50712;49.506;10.400;2023-08-07T02:44:43;50.68;47.50;60.28;;
64393;Laerm;50712;49.506;10.400;2023-08-07T02:45:17;50.68;47.50;60.28;;
64393;Laerm;50712;49.506;10.400;2023-08-07T02:45:47;50.51;46.63;60.16;;
64393;Laerm;50712;49.506;10.400;2023-08-07T02:46:18;51.30;47.74;59.25;;
64393;Laerm;50712;49.506;10.400;2023-08-07T02:46:48;51.45;48.53;59.71;;
64393;Laerm;50712;49.506;10.400;2023-08-07T02:47:18;51.28;47.85;58.71;;
64393;Laerm;50712;49.506;10.400;2023-08-07T02:47:49;50.56;47.60;59.53;;
64393;Laerm;50712;49.506;10.400;2023-08-07T02:48:20;51.04;47.53;58.42;;
64393;Laerm;50712;49.506;10.400;2023-08-07T02:48:50;51.72;48.03;59.83;;
64393;Laerm;50712;49.506;10.400;2023-08-07T02:49:21;51.01;47.48;59.28;;
64393;Laerm;50712;49.506;10.400;2023-08-07T02:49:51;51.76;47.98;59.46;;
64393;Laerm;50712;49.506;10.400;2023-08-07T02:50:22;53.74;47.75;59.80;;
64393;Laerm;50712;49.506;10.400;2023-08-07T02:50:52;52.18;48.05;59.11;;
64393;Laerm;50712;49.506;10.400;2023-08-07T02:51:23;50.97;48.07;57.78;;
64393;Laerm;50712;49.506;10.400;2023-08-07T02:51:54;51.40;47.78;58.98;;
64393;Laerm;50712;49.506;10.400;2023-08-07T02:52:24;51.70;47.98;62.08;;
64393;Laerm;50712;49.506;10.400;2023-08-07T02:52:54;50.10;47.72;56.18;;
64393;Laerm;50712;49.506;10.400;2023-08-07T02:53:25;53.51;48.02;59.24;;
64393;Laerm;50712;49.506;10.400;2023-08-07T02:53:55;53.29;49.72;57.44;;
64393;Laerm;50712;49.506;10.400;2023-08-07T02:54:31;53.52;49.58;61.96;;
64393;Laerm;50712;49.506;10.400;2023-08-07T02:55:05;53.66;48.96;59.35;;
64393;Laerm;50712;49.506;10.400;2023-08-07T02:55:35;53.06;48.28;57.66;;
64393;Laerm;50712;49.506;10.400;2023-08-07T02:56:06;50.87;48.76;54.38;;
64393;Laerm;50712;49.506;10.400;2023-08-07T02:56:36;52.69;48.20;60.46;;
64393;Laerm;50712;49.506;10.400;2023-08-07T02:57:07;56.49;50.49;60.70;;
64393;Laerm;50712;49.506;10.400;2023-08-07T02:57:43;56.89;51.56;60.35;;
64393;Laerm;50712;49.506;10.400;2023-08-07T02:58:13;55.98;49.41;60.35;;
64393;Laerm;50712;49.506;10.400;2023-08-07T02:58:43;54.75;49.61;59.10;;
64393;Laerm;50712;49.506;10.400;2023-08-07T02:59:14;53.82;48.07;62.18;;
64393;Laerm;50712;49.506;10.400;2023-08-07T02:59:45;55.06;50.35;57.69;;
64393;Laerm;50712;49.506;10.400;2023-08-07T03:00:15;57.76;50.31;61.48;;
64393;Laerm;50712;49.506;10.400;2023-08-07T03:00:46;57.07;53.05;62.39;;
64393;Laerm;50712;49.506;10.400;2023-08-07T03:01:16;59.31;51.10;65.35;;
64393;Laerm;50712;49.506;10.400;2023-08-07T03:01:46;53.85;48.73;58.90;;
64393;Laerm;50712;49.506;10.400;2023-08-07T03:02:17;57.71;50.01;61.71;;
64393;Laerm;50712;49.506;10.400;2023-08-07T03:02:47;51.01;48.35;55.65;;
64393;Laerm;50712;49.506;10.400;2023-08-07T03:03:18;49.95;47.42;53.35;;